Captain Jack — WDC3898 — position and weather

sailwx.info

Track history (hours):
 
Tides and Currents Weather Stations Pressure Air Temp Water Temp Dewpoint Dewpoint Depression Visibility Wind Speed Wind Dir Waves Ship Positions

Captain Jack

Owner: Bonvillian Marine Service, Buras, LA. More information available from US FCC via Universal Licensing System and Coast Guard Vessel Documentation Center.

Last reported at 2014-Aug-09 17:32 UTC. Time now 2014-Oct-25 18:16 UTC.
Position N 29°33' W 090°25'.
Warning: this ship's position is months out of date.

Length 15 m; draft 1 m.

Type: Tug. MMSI: 367015950.

Date/timePositionNaut miles runAvg speedWind from/ knotsBaromVisibWave heightAir tempDewpointWater temp
2014-Aug-09 17:32N 29°33' W 090°25'8 8.5
2014-Aug-09 16:33N 29°34' W 090°34'22 6.9
2014-Aug-09 13:21N 29°37' W 090°60'7 8.2
2014-Aug-09 12:33N 29°39' W 091°07'4 4.1
2014-Aug-09 11:33N 29°41' W 091°11'0 0.0
2014-Aug-09 10:33N 29°41' W 091°11'0 0.0
2014-Aug-09 09:33N 29°41' W 091°11'0 0.0
2014-Aug-09 08:33N 29°41' W 091°11'0 0.4
2014-Aug-09 07:33N 29°41' W 091°11'1 1.3
2014-Aug-09 06:33N 29°41' W 091°13'3 2.5
2014-Aug-09 05:33N 29°41' W 091°10'3 2.9
2014-Aug-09 04:33N 29°39' W 091°07'6 5.2
2014-Aug-09 03:28N 29°37' W 091°01'5 5.8
2014-Aug-09 02:33N 29°34' W 090°56'17 4.3
2014-Aug-08 22:33N 29°35' W 090°37'5 5.4
2014-Aug-08 21:33N 29°34' W 090°31'  
Track history (hours):
 
Tides and Currents Weather Stations Pressure Air Temp Water Temp Dewpoint Dewpoint Depression Visibility Wind Speed Wind Dir Waves Ship Positions

Captain Jack

Owner: Bonvillian Marine Service, Buras, LA. More information available from US FCC via Universal Licensing System and Coast Guard Vessel Documentation Center.

Last reported at 2014-Aug-09 17:32 UTC. Time now 2014-Oct-25 18:16 UTC.
Position N 29°33' W 090°25'.
Warning: this ship's position is months out of date.

Length 15 m; draft 1 m.

Type: Tug. MMSI: 367015950.

Date/timePositionNaut miles runAvg speedWind from/ knotsBaromVisibWave heightAir tempDewpointWater temp
2014-Aug-09 17:32N 29°33' W 090°25'8 8.5
2014-Aug-09 16:33N 29°34' W 090°34'22 6.9
2014-Aug-09 13:21N 29°37' W 090°60'7 8.2
2014-Aug-09 12:33N 29°39' W 091°07'4 4.1
2014-Aug-09 11:33N 29°41' W 091°11'0 0.0
2014-Aug-09 10:33N 29°41' W 091°11'0 0.0
2014-Aug-09 09:33N 29°41' W 091°11'0 0.0
2014-Aug-09 08:33N 29°41' W 091°11'0 0.4
2014-Aug-09 07:33N 29°41' W 091°11'1 1.3
2014-Aug-09 06:33N 29°41' W 091°13'3 2.5
2014-Aug-09 05:33N 29°41' W 091°10'3 2.9
2014-Aug-09 04:33N 29°39' W 091°07'6 5.2
2014-Aug-09 03:28N 29°37' W 091°01'5 5.8
2014-Aug-09 02:33N 29°34' W 090°56'17 4.3
2014-Aug-08 22:33N 29°35' W 090°37'5 5.4
2014-Aug-08 21:33N 29°34' W 090°31'  

Dump ship's entire track history